createdAt,value
2017-11-17T00:00:03.366Z,2.90
2017-11-17T00:02:31.437Z,2.90
2017-11-17T00:04:59.792Z,2.90
2017-11-17T00:07:28.125Z,2.90
2017-11-17T00:09:56.446Z,2.90
2017-11-17T00:12:25.533Z,2.90
2017-11-17T00:14:58.230Z,2.90
2017-11-17T00:17:27.302Z,2.80
2017-11-17T00:19:55.635Z,2.80
2017-11-17T00:22:23.953Z,2.80
2017-11-17T00:24:53.081Z,2.80
2017-11-17T00:27:22.157Z,2.80
2017-11-17T00:29:51.228Z,2.90
2017-11-17T00:32:19.553Z,2.80
2017-11-17T00:34:48.621Z,2.70
2017-11-17T00:37:16.952Z,2.70
2017-11-17T00:39:45.276Z,2.70
2017-11-17T00:42:13.605Z,2.70
2017-11-17T00:44:41.912Z,2.70
2017-11-17T00:47:10.244Z,2.80
2017-11-17T00:49:38.554Z,2.80
2017-11-17T00:52:06.879Z,2.80
2017-11-17T00:54:35.957Z,2.90
2017-11-17T00:57:04.281Z,2.90
2017-11-17T00:59:32.593Z,2.90
2017-11-17T01:02:01.627Z,3.00
2017-11-17T01:04:29.953Z,2.90
2017-11-17T01:06:58.281Z,2.90
2017-11-17T01:09:27.356Z,2.90
2017-11-17T01:11:55.688Z,2.90
2017-11-17T01:14:23.998Z,3.00
2017-11-17T01:16:52.324Z,2.90
2017-11-17T01:19:21.393Z,2.90
2017-11-17T01:21:49.726Z,2.90
2017-11-17T01:24:18.033Z,2.90
2017-11-17T01:26:46.372Z,2.90
2017-11-17T01:29:14.681Z,2.90
2017-11-17T01:31:43.007Z,2.90
2017-11-17T01:34:12.083Z,2.90
2017-11-17T01:36:40.429Z,2.90
2017-11-17T01:39:08.736Z,2.90
2017-11-17T01:41:37.070Z,2.90
2017-11-17T01:44:05.417Z,2.90
2017-11-17T01:46:34.491Z,2.90
2017-11-17T01:49:02.830Z,2.90
2017-11-17T01:51:31.911Z,2.90
2017-11-17T01:54:00.264Z,2.90
2017-11-17T01:56:29.338Z,2.90
2017-11-17T01:58:57.687Z,2.90
2017-11-17T02:01:26.023Z,2.90
2017-11-17T02:03:55.113Z,2.90
2017-11-17T02:06:24.193Z,2.90
2017-11-17T02:08:52.550Z,2.90
2017-11-17T02:11:20.885Z,3.00
2017-11-17T02:13:49.185Z,3.00
2017-11-17T02:16:17.520Z,3.00
2017-11-17T02:18:46.737Z,3.00
2017-11-17T02:21:15.833Z,3.00
2017-11-17T02:23:44.144Z,3.00
2017-11-17T02:26:12.493Z,3.00
2017-11-17T02:28:40.805Z,3.00
2017-11-17T02:31:09.138Z,3.00
2017-11-17T02:33:37.484Z,3.10
2017-11-17T02:36:05.837Z,3.00
2017-11-17T02:38:34.160Z,3.00
2017-11-17T02:41:03.289Z,3.00
2017-11-17T02:43:31.632Z,3.00
2017-11-17T02:45:59.942Z,3.00
2017-11-17T02:48:28.308Z,3.10
2017-11-17T02:50:56.647Z,3.10
2017-11-17T02:53:24.990Z,3.00
2017-11-17T02:55:53.297Z,3.10
2017-11-17T02:58:21.702Z,3.10
2017-11-17T03:00:50.008Z,3.10
2017-11-17T03:03:18.388Z,3.10
2017-11-17T03:05:47.469Z,3.10
2017-11-17T03:08:15.803Z,3.10
2017-11-17T03:10:44.134Z,3.20
2017-11-17T03:13:13.287Z,3.10
2017-11-17T03:15:41.676Z,3.10
2017-11-17T03:18:10.029Z,3.10
2017-11-17T03:20:38.368Z,3.10
2017-11-17T03:23:07.472Z,3.10
2017-11-17T03:25:36.550Z,3.10
2017-11-17T03:28:05.661Z,3.00
2017-11-17T03:30:33.989Z,3.00
2017-11-17T03:33:02.328Z,3.10
2017-11-17T03:35:31.401Z,3.10
2017-11-17T03:37:59.738Z,3.10
2017-11-17T03:40:28.044Z,3.10
2017-11-17T03:42:56.383Z,3.20
2017-11-17T03:45:24.690Z,3.20
2017-11-17T03:47:53.020Z,3.20
2017-11-17T03:50:21.337Z,3.20
2017-11-17T03:52:49.672Z,3.20
2017-11-17T03:55:17.980Z,3.20
2017-11-17T03:57:46.604Z,3.20
2017-11-17T04:00:14.951Z,3.20
2017-11-17T04:02:46.958Z,3.20
2017-11-17T04:05:15.271Z,3.20
2017-11-17T04:07:43.623Z,3.20
2017-11-17T04:10:12.685Z,3.20
2017-11-17T04:12:41.035Z,3.20
2017-11-17T04:15:09.351Z,3.20
2017-11-17T04:17:37.687Z,3.20
2017-11-17T04:20:07.952Z,3.20
2017-11-17T04:22:36.301Z,3.30
2017-11-17T04:25:04.659Z,3.20
2017-11-17T04:27:32.976Z,3.20
2017-11-17T04:30:03.350Z,3.20
2017-11-17T04:32:32.438Z,3.20
2017-11-17T04:35:01.539Z,3.20
2017-11-17T04:37:30.610Z,3.20
2017-11-17T04:39:58.946Z,3.20
2017-11-17T04:42:27.250Z,3.30
2017-11-17T04:44:55.612Z,3.20
2017-11-17T04:47:23.908Z,3.20
2017-11-17T04:49:55.993Z,3.30
2017-11-17T04:52:24.306Z,3.40
2017-11-17T04:54:53.404Z,3.30
2017-11-17T04:57:21.734Z,3.30
2017-11-17T04:59:50.043Z,3.30
2017-11-17T05:02:19.133Z,3.30
2017-11-17T05:04:48.216Z,3.40
2017-11-17T05:07:16.550Z,3.30
2017-11-17T05:09:46.800Z,3.30
2017-11-17T05:12:15.130Z,3.30
2017-11-17T05:14:44.192Z,3.30
2017-11-17T05:17:12.531Z,3.30
2017-11-17T05:19:40.846Z,3.30
2017-11-17T05:22:09.186Z,3.30
2017-11-17T05:24:37.498Z,3.30
2017-11-17T05:27:06.818Z,3.30
2017-11-17T05:29:35.129Z,3.30
2017-11-17T05:32:07.035Z,3.40
2017-11-17T05:34:35.342Z,3.40
2017-11-17T05:37:04.442Z,3.30
2017-11-17T05:39:33.530Z,3.30
2017-11-17T05:42:01.857Z,3.30
2017-11-17T05:44:30.166Z,3.30
2017-11-17T05:46:58.507Z,3.40
2017-11-17T05:49:27.582Z,3.40
2017-11-17T05:51:56.716Z,3.40
2017-11-17T05:54:25.029Z,3.40
2017-11-17T05:56:53.372Z,3.40
2017-11-17T05:59:21.682Z,3.30
2017-11-17T06:01:50.032Z,3.30
2017-11-17T06:04:18.334Z,3.30
2017-11-17T06:06:46.664Z,3.30
2017-11-17T06:09:14.977Z,3.30
2017-11-17T06:11:43.329Z,3.40
2017-11-17T06:14:11.633Z,3.40
2017-11-17T06:16:39.938Z,3.30
2017-11-17T06:19:08.296Z,3.30
2017-11-17T06:21:36.607Z,3.30
2017-11-17T06:24:05.703Z,3.40
2017-11-17T06:26:34.782Z,3.40
2017-11-17T06:29:03.222Z,3.30
2017-11-17T06:31:31.521Z,3.40
2017-11-17T06:33:59.877Z,3.50
2017-11-17T06:36:28.181Z,3.60
2017-11-17T06:38:56.506Z,3.50
2017-11-17T06:41:25.582Z,3.50
2017-11-17T06:43:53.922Z,3.50
2017-11-17T06:46:22.241Z,3.50
2017-11-17T06:48:50.571Z,3.50
2017-11-17T06:51:18.886Z,3.50
2017-11-17T06:53:47.217Z,3.50
2017-11-17T06:56:15.530Z,3.40
2017-11-17T06:58:43.868Z,3.40
2017-11-17T07:01:12.189Z,3.50
2017-11-17T07:03:40.542Z,3.50
2017-11-17T07:06:08.860Z,3.50
2017-11-17T07:08:37.167Z,3.50
2017-11-17T07:11:05.529Z,3.50
2017-11-17T07:13:34.626Z,3.50
2017-11-17T07:16:03.730Z,3.50
2017-11-17T07:18:32.803Z,3.50
2017-11-17T07:21:01.142Z,3.50
2017-11-17T07:23:29.444Z,3.50
2017-11-17T07:25:57.774Z,3.50
2017-11-17T07:28:26.083Z,3.50
2017-11-17T07:30:54.412Z,3.50
2017-11-17T07:33:22.726Z,3.50
2017-11-17T07:35:51.060Z,3.50
2017-11-17T07:38:19.375Z,3.60
2017-11-17T07:40:47.721Z,3.50
2017-11-17T07:43:16.803Z,3.60
2017-11-17T07:45:45.118Z,3.60
2017-11-17T07:48:14.213Z,3.60
2017-11-17T07:50:42.529Z,3.60
2017-11-17T07:53:10.850Z,3.60
2017-11-17T07:55:39.156Z,3.70
2017-11-17T07:58:07.492Z,3.60
2017-11-17T08:00:35.803Z,3.60
2017-11-17T08:03:04.154Z,3.60
2017-11-17T08:05:32.463Z,3.60
2017-11-17T08:08:01.559Z,3.70
2017-11-17T08:10:29.876Z,3.70
2017-11-17T08:12:58.202Z,3.60
2017-11-17T08:15:27.276Z,3.60
2017-11-17T08:20:56.218Z,3.60
2017-11-17T08:23:25.301Z,3.60
2017-11-17T08:25:53.610Z,3.60
2017-11-17T08:28:21.933Z,3.70
2017-11-17T08:30:50.270Z,3.70
2017-11-17T08:33:18.607Z,3.70
2017-11-17T08:35:46.914Z,3.70
2017-11-17T08:38:16.008Z,3.80
2017-11-17T08:40:45.071Z,3.90
2017-11-17T08:43:13.396Z,3.80
2017-11-17T08:45:41.709Z,3.90
2017-11-17T08:48:10.034Z,3.80
2017-11-17T08:50:39.102Z,3.90
2017-11-17T08:53:07.447Z,3.90
2017-11-17T08:55:35.778Z,3.90
2017-11-17T08:58:04.074Z,3.90
2017-11-17T09:00:33.159Z,4.10
2017-11-17T09:03:02.243Z,4.20
2017-11-17T09:05:30.566Z,4.20
2017-11-17T09:07:58.870Z,4.20
2017-11-17T09:10:27.201Z,4.30
2017-11-17T09:12:56.280Z,4.40
2017-11-17T09:15:25.386Z,4.50
2017-11-17T09:17:54.451Z,4.50
2017-11-17T09:20:22.800Z,4.50
2017-11-17T09:22:51.106Z,4.40
2017-11-17T09:25:19.421Z,4.50
2017-11-17T09:27:48.505Z,4.50
2017-11-17T09:30:17.561Z,4.60
2017-11-17T09:32:45.883Z,4.60
2017-11-17T09:35:14.957Z,4.60
2017-11-17T09:37:43.283Z,4.60
2017-11-17T09:40:11.583Z,4.70
2017-11-17T09:42:39.910Z,4.70
2017-11-17T09:45:08.980Z,4.90
2017-11-17T09:47:37.321Z,4.90
2017-11-17T09:50:05.627Z,4.80
2017-11-17T09:52:33.963Z,4.90
2017-11-17T09:55:02.256Z,4.90
2017-11-17T09:57:30.593Z,4.90
2017-11-17T09:59:58.898Z,5.00
2017-11-17T10:02:27.230Z,5.00
2017-11-17T10:04:55.564Z,5.00
2017-11-17T10:07:23.869Z,5.00
2017-11-17T10:09:52.188Z,5.00
2017-11-17T10:12:21.252Z,5.10
2017-11-17T10:14:49.599Z,5.10
2017-11-17T10:17:17.906Z,5.00
2017-11-17T10:19:46.240Z,5.00
2017-11-17T10:22:14.547Z,5.00
2017-11-17T10:24:42.900Z,5.10
2017-11-17T10:27:11.211Z,5.00
2017-11-17T10:29:39.578Z,5.00
2017-11-17T10:32:07.901Z,4.90
2017-11-17T10:34:36.198Z,5.00
2017-11-17T10:37:05.310Z,5.20
2017-11-17T10:39:34.370Z,5.20
2017-11-17T10:42:02.681Z,5.20
2017-11-17T10:44:30.995Z,5.20
2017-11-17T10:46:59.327Z,5.10
2017-11-17T10:49:28.394Z,5.00
2017-11-17T10:51:56.727Z,5.00
2017-11-17T10:54:25.020Z,5.20
2017-11-17T10:56:56.792Z,5.20
2017-11-17T10:59:25.099Z,5.30
2017-11-17T11:01:53.394Z,5.40
2017-11-17T11:04:22.478Z,5.40
2017-11-17T11:06:51.541Z,5.40
2017-11-17T11:09:19.870Z,5.40
2017-11-17T11:11:52.774Z,5.50
2017-11-17T11:14:21.092Z,5.40
2017-11-17T11:16:49.397Z,5.50
2017-11-17T11:19:18.491Z,5.60
2017-11-17T11:21:46.790Z,5.60
2017-11-17T11:24:16.043Z,5.70
2017-11-17T11:26:44.341Z,5.60
2017-11-17T11:29:12.665Z,5.60
2017-11-17T11:31:40.979Z,5.70
2017-11-17T11:34:09.313Z,5.70
2017-11-17T11:36:37.628Z,5.60
2017-11-17T11:39:05.977Z,5.70
2017-11-17T11:41:34.280Z,5.60
2017-11-17T11:44:02.578Z,5.60
2017-11-17T11:46:30.897Z,5.70
2017-11-17T11:48:59.197Z,5.80
2017-11-17T11:51:27.529Z,5.70
2017-11-17T11:53:55.832Z,5.70
2017-11-17T11:56:24.196Z,5.70
2017-11-17T11:58:53.275Z,5.80
2017-11-17T12:01:21.603Z,5.80
2017-11-17T12:03:49.908Z,5.70
2017-11-17T12:06:18.237Z,5.70
2017-11-17T12:08:46.557Z,5.70
2017-11-17T12:11:14.896Z,5.70
2017-11-17T12:13:43.967Z,5.60
2017-11-17T12:16:12.291Z,5.70
2017-11-17T12:18:40.588Z,5.70
2017-11-17T12:21:08.900Z,5.60
2017-11-17T12:23:38.015Z,5.50
2017-11-17T12:26:07.098Z,5.60
2017-11-17T12:28:35.424Z,5.60
2017-11-17T12:31:03.740Z,5.70
2017-11-17T12:33:32.085Z,5.70
2017-11-17T12:36:00.413Z,5.50
2017-11-17T12:38:29.554Z,5.60
2017-11-17T12:40:57.899Z,5.50
2017-11-17T12:43:27.017Z,5.50
2017-11-17T12:45:55.343Z,5.50
2017-11-17T12:48:23.711Z,5.60
2017-11-17T12:50:52.032Z,5.60
2017-11-17T12:53:21.146Z,5.60
2017-11-17T12:55:49.486Z,5.60
2017-11-17T12:58:17.846Z,5.60
2017-11-17T13:00:46.175Z,5.60
2017-11-17T13:03:14.543Z,5.60
2017-11-17T13:05:43.628Z,5.60
2017-11-17T13:08:11.943Z,5.50
2017-11-17T13:10:40.286Z,5.50
2017-11-17T13:13:09.379Z,5.30
2017-11-17T13:15:41.835Z,5.30
2017-11-17T13:18:10.150Z,5.30
2017-11-17T13:20:39.257Z,5.50
2017-11-17T13:23:07.559Z,5.40
2017-11-17T13:25:35.906Z,5.40
2017-11-17T13:28:04.987Z,5.50
2017-11-17T13:30:33.308Z,5.50
2017-11-17T13:33:01.638Z,5.50
2017-11-17T13:35:30.016Z,5.60
2017-11-17T13:37:58.358Z,5.50
2017-11-17T13:40:26.660Z,5.50
2017-11-17T13:42:54.985Z,5.50
2017-11-17T13:45:23.299Z,5.50
2017-11-17T13:47:51.646Z,5.50
2017-11-17T13:50:20.025Z,5.50
2017-11-17T13:52:48.362Z,5.50
2017-11-17T13:55:16.676Z,5.60
2017-11-17T13:57:45.001Z,5.50
2017-11-17T14:00:13.327Z,5.40
2017-11-17T14:02:41.678Z,5.30
2017-11-17T14:05:09.995Z,5.30
2017-11-17T14:07:38.298Z,5.30
2017-11-17T14:10:06.639Z,5.50
2017-11-17T14:12:35.721Z,5.50
2017-11-17T14:15:04.072Z,5.50
2017-11-17T14:17:32.404Z,5.50
2017-11-17T14:20:01.182Z,5.40
2017-11-17T14:22:30.275Z,5.60
2017-11-17T14:24:58.646Z,5.60
2017-11-17T14:27:27.729Z,5.50
2017-11-17T14:29:56.082Z,5.50
2017-11-17T14:32:24.400Z,5.50
2017-11-17T14:34:53.510Z,5.40
2017-11-17T14:37:21.833Z,5.40
2017-11-17T14:39:50.167Z,5.40
2017-11-17T14:42:19.295Z,5.40
2017-11-17T14:44:47.601Z,5.40
2017-11-17T14:47:15.938Z,5.50
2017-11-17T14:49:44.263Z,5.30
2017-11-17T14:52:12.602Z,5.10
2017-11-17T14:54:40.920Z,5.00
2017-11-17T14:57:09.246Z,4.90
2017-11-17T14:59:37.566Z,4.90
2017-11-17T15:02:05.895Z,4.90
2017-11-17T15:04:34.210Z,4.80
2017-11-17T15:07:02.567Z,4.90
2017-11-17T15:09:30.874Z,5.00
2017-11-17T15:11:59.204Z,5.20
2017-11-17T15:14:28.269Z,5.40
2017-11-17T15:16:56.609Z,5.40
2017-11-17T15:19:24.927Z,5.40
2017-11-17T15:21:53.263Z,5.40
2017-11-17T15:24:21.579Z,5.50
2017-11-17T15:26:49.952Z,5.50
2017-11-17T15:29:18.264Z,5.50
2017-11-17T15:31:47.372Z,5.40
2017-11-17T15:34:16.453Z,5.40
2017-11-17T15:36:44.762Z,5.40
2017-11-17T15:39:13.102Z,5.50
2017-11-17T15:41:41.452Z,5.40
2017-11-17T15:44:09.806Z,5.40
2017-11-17T15:46:38.140Z,5.50
2017-11-17T15:49:06.494Z,5.50
2017-11-17T15:51:34.810Z,5.50
2017-11-17T15:54:06.107Z,5.40
2017-11-17T15:56:34.409Z,5.50
2017-11-17T15:59:02.756Z,5.50
2017-11-17T16:01:31.067Z,5.60
2017-11-17T16:03:59.436Z,5.60
2017-11-17T16:06:27.755Z,5.60
2017-11-17T16:08:56.854Z,5.60
2017-11-17T16:11:25.174Z,5.60
2017-11-17T16:13:53.519Z,5.50
2017-11-17T16:16:21.816Z,5.60
2017-11-17T16:18:50.165Z,5.60
2017-11-17T16:21:19.240Z,5.60
2017-11-17T16:23:47.543Z,5.60
2017-11-17T16:26:16.648Z,5.60
2017-11-17T16:28:44.971Z,5.50
2017-11-17T16:31:13.316Z,5.50
2017-11-17T16:33:41.615Z,5.50
2017-11-17T16:36:09.963Z,5.40
2017-11-17T16:38:38.296Z,5.50
2017-11-17T16:41:06.623Z,5.50
2017-11-17T16:43:34.946Z,5.50
2017-11-17T16:46:03.265Z,5.50
2017-11-17T16:48:31.595Z,5.40
2017-11-17T16:50:59.925Z,5.50
2017-11-17T16:53:28.289Z,5.60
2017-11-17T16:55:56.612Z,5.50
2017-11-17T16:58:24.924Z,5.40
2017-11-17T17:00:53.262Z,5.40
2017-11-17T17:03:21.576Z,5.40
2017-11-17T17:05:49.921Z,5.40
2017-11-17T17:08:18.217Z,5.50
2017-11-17T17:10:46.558Z,5.60
2017-11-17T17:13:14.885Z,5.50
2017-11-17T17:15:43.215Z,5.50
2017-11-17T17:18:11.550Z,5.50
2017-11-17T17:20:39.905Z,5.50
2017-11-17T17:23:08.209Z,5.50
2017-11-17T17:25:36.537Z,5.50
2017-11-17T17:28:04.894Z,5.30
2017-11-17T17:30:33.224Z,5.30
2017-11-17T17:33:01.561Z,5.40
2017-11-17T17:35:30.652Z,5.40
2017-11-17T17:37:59.766Z,5.40
2017-11-17T17:40:28.073Z,5.30
2017-11-17T17:42:56.431Z,5.10
2017-11-17T17:45:24.750Z,5.10
2017-11-17T17:47:53.855Z,5.40
2017-11-17T17:53:15.621Z,5.40
2017-11-17T17:55:44.697Z,5.40
2017-11-17T17:58:13.082Z,5.40
2017-11-17T18:00:41.415Z,5.40
2017-11-17T18:03:09.766Z,5.40
2017-11-17T18:05:38.159Z,5.40
2017-11-17T18:08:06.483Z,5.30
2017-11-17T18:10:34.797Z,5.40
2017-11-17T18:13:03.900Z,5.30
2017-11-17T18:15:32.987Z,5.30
2017-11-17T18:18:02.086Z,5.40
2017-11-17T18:20:31.152Z,5.40
2017-11-17T18:22:59.499Z,5.40
2017-11-17T18:25:31.035Z,5.50
2017-11-17T18:27:59.438Z,5.40
2017-11-17T18:30:27.746Z,5.40
2017-11-17T18:32:56.074Z,5.50
2017-11-17T18:35:24.396Z,5.50
2017-11-17T18:37:52.837Z,5.50
2017-11-17T18:40:21.195Z,5.40
2017-11-17T18:42:50.366Z,5.50
2017-11-17T18:45:19.620Z,5.50
2017-11-17T18:47:47.984Z,5.50
2017-11-17T18:50:17.096Z,5.50
2017-11-17T18:52:45.420Z,5.50
2017-11-17T18:55:13.757Z,5.50
2017-11-17T18:57:42.072Z,5.50
2017-11-17T19:00:10.416Z,5.50
2017-11-17T19:02:38.747Z,5.50
2017-11-17T19:05:07.137Z,5.50
2017-11-17T19:07:35.471Z,5.40
2017-11-17T19:10:03.815Z,5.40
2017-11-17T19:12:32.889Z,5.50
2017-11-17T19:15:01.248Z,5.50
2017-11-17T19:17:29.565Z,5.50
2017-11-17T19:19:57.870Z,5.50
2017-11-17T19:22:26.207Z,5.40
2017-11-17T19:24:55.294Z,5.50
2017-11-17T19:27:24.389Z,5.40
2017-11-17T19:29:53.460Z,5.50
2017-11-17T19:32:21.814Z,5.50
2017-11-17T19:34:50.128Z,5.40
2017-11-17T19:37:18.486Z,5.40
2017-11-17T19:39:46.861Z,5.50
2017-11-17T19:42:15.169Z,5.30
2017-11-17T19:44:43.507Z,5.20
2017-11-17T19:47:11.820Z,5.30
2017-11-17T19:49:40.172Z,5.40
2017-11-17T19:52:08.502Z,5.20
2017-11-17T19:54:37.661Z,5.00
2017-11-17T19:57:05.970Z,5.00
2017-11-17T19:59:35.086Z,5.10
2017-11-17T20:02:03.399Z,5.20
2017-11-17T20:04:31.783Z,5.30
2017-11-17T20:07:00.136Z,5.30
2017-11-17T20:09:28.471Z,5.30
2017-11-17T20:11:56.782Z,5.40
2017-11-17T20:14:25.174Z,5.40
2017-11-17T20:16:53.543Z,5.40
2017-11-17T20:19:21.903Z,5.40
2017-11-17T20:21:50.983Z,5.30
2017-11-17T20:24:19.328Z,5.30
2017-11-17T20:26:48.461Z,5.20
2017-11-17T20:29:16.800Z,5.20
2017-11-17T20:31:45.192Z,5.20
2017-11-17T20:34:13.516Z,5.20
2017-11-17T20:36:42.621Z,5.30
2017-11-17T20:39:11.708Z,5.20
2017-11-17T20:41:40.839Z,5.20
2017-11-17T20:44:09.216Z,5.20
2017-11-17T20:46:37.550Z,5.20
2017-11-17T20:49:06.657Z,5.30
2017-11-17T20:51:34.999Z,5.30
2017-11-17T20:54:03.310Z,5.40
2017-11-17T20:56:32.437Z,5.40
2017-11-17T20:59:00.755Z,5.40
2017-11-17T21:01:29.090Z,5.50
2017-11-17T21:03:57.427Z,5.50
2017-11-17T21:06:25.734Z,5.50
2017-11-17T21:08:54.877Z,5.50
2017-11-17T21:11:23.233Z,5.50
2017-11-17T21:13:51.551Z,5.50
2017-11-17T21:16:20.719Z,5.40
2017-11-17T21:18:49.045Z,5.40
2017-11-17T21:21:17.358Z,5.40
2017-11-17T21:23:45.701Z,5.50
2017-11-17T21:26:14.016Z,5.40
2017-11-17T21:28:42.344Z,5.50
2017-11-17T21:31:10.657Z,5.50
2017-11-17T21:33:39.775Z,5.50
2017-11-17T21:36:08.091Z,5.50
2017-11-17T21:38:36.421Z,5.50
2017-11-17T21:41:04.751Z,5.60
2017-11-17T21:43:33.091Z,5.50
2017-11-17T21:46:01.408Z,5.50
2017-11-17T21:48:29.744Z,5.60
2017-11-17T21:50:58.075Z,5.60
2017-11-17T21:53:26.422Z,5.50
2017-11-17T21:55:54.737Z,5.50
2017-11-17T21:58:23.065Z,5.50
2017-11-17T22:00:51.376Z,5.60
2017-11-17T22:03:19.726Z,5.50
2017-11-17T22:05:48.060Z,5.50
2017-11-17T22:08:17.869Z,5.50
2017-11-17T22:10:46.217Z,5.50
2017-11-17T22:13:14.542Z,5.60
2017-11-17T22:15:43.641Z,5.50
2017-11-17T22:18:12.704Z,5.50
2017-11-17T22:20:41.051Z,5.50
2017-11-17T22:23:09.358Z,5.50
2017-11-17T22:25:37.695Z,5.50
2017-11-17T22:28:06.001Z,5.50
2017-11-17T22:30:34.338Z,5.50
2017-11-17T22:33:02.657Z,5.60
2017-11-17T22:35:31.003Z,5.50
2017-11-17T22:37:59.329Z,5.50
2017-11-17T22:40:27.668Z,5.50
2017-11-17T22:42:55.991Z,5.50
2017-11-17T22:45:24.322Z,5.50
2017-11-17T22:47:52.630Z,5.60
2017-11-17T22:50:20.968Z,5.50
2017-11-17T22:52:49.294Z,5.50
2017-11-17T22:55:17.657Z,5.60
2017-11-17T22:57:45.975Z,5.60
2017-11-17T23:00:14.302Z,5.60
2017-11-17T23:02:42.615Z,5.50
2017-11-17T23:05:10.953Z,5.60
2017-11-17T23:07:39.266Z,5.50
2017-11-17T23:10:07.599Z,5.50
2017-11-17T23:12:35.909Z,5.60
2017-11-17T23:15:04.217Z,5.60
2017-11-17T23:17:32.561Z,5.50
2017-11-17T23:20:00.877Z,5.50
2017-11-17T23:22:29.240Z,5.40
2017-11-17T23:24:57.549Z,5.50
2017-11-17T23:27:26.638Z,5.50
2017-11-17T23:29:55.726Z,5.50
2017-11-17T23:32:24.071Z,5.50
2017-11-17T23:34:52.390Z,5.50
2017-11-17T23:37:20.762Z,5.60
2017-11-17T23:39:49.071Z,5.60
2017-11-17T23:42:17.416Z,5.60
2017-11-17T23:44:45.738Z,5.50
2017-11-17T23:47:14.085Z,5.40
2017-11-17T23:49:42.399Z,5.40
2017-11-17T23:52:11.701Z,5.50
2017-11-17T23:54:40.807Z,5.50
2017-11-17T23:57:09.129Z,5.50
2017-11-17T23:59:37.459Z,5.50
